Time;durP1;ratioP1;P1;durP2;ratioP2;P2;SDS_P1;SDS_P2;PMS_P1;PMS_P2;Temp;Humidity;BMP_temperature;BMP_pressure;BME280_temperature;BME280_humidity;BME280_pressure;Samples;Min_cycle;Max_cycle;Signal;HPM_P1;HPM_P2
2021/05/21 00:19:46;;;;;;;;;;;;;;;12.90;56.75;99662.06;2212554;40;20015;-82
2021/05/21 00:21:17;;;;;;;;;;;;;;;12.94;56.84;99655.31;2192361;40;20004;-83
2021/05/21 00:22:49;;;;;;;;;;;;;;;12.97;56.63;99650.63;2191424;40;19943;-82
2021/05/21 00:24:42;;;;;;;;;;;;;;;13.01;56.70;99655.47;2185575;40;19943;-82
2021/05/21 00:26:13;;;;;;;;;;;;;;;12.94;56.96;99655.31;2180947;41;19935;-82
2021/05/21 00:27:44;;;;;;;;;;;;;;;12.87;57.30;99648.97;2168944;41;20469;-82
2021/05/21 00:29:15;;;;;;;;;;;;;;;12.81;57.58;99633.56;2162270;41;20395;-81
2021/05/21 00:30:55;;;;;;;;;;;;;;;12.76;57.96;99638.56;2173227;41;19944;-81
2021/05/21 00:32:27;;;;;;;;;;;;;;;12.74;57.88;99640.63;2180159;41;19963;-81
2021/05/21 00:34:02;;;;;;;;;;;;;;;12.70;58.13;99629.38;2160448;41;19943;-82
2021/05/21 00:35:34;;;;;;;;;;;;;;;12.69;58.33;99634.91;2176138;41;19998;-82
2021/05/21 00:37:05;;;;;;;;;;;;;;;12.66;58.37;99633.41;2184856;41;19961;-81
2021/05/21 00:38:36;;;;;;;;;;;;;;;12.66;58.44;99621.84;2168566;41;19959;-82
2021/05/21 00:40:08;;;;;;;;;;;;;;;12.68;58.67;99627.84;2167842;41;19947;-81
2021/05/21 00:41:39;;;;;;;;;;;;;;;12.64;58.58;99620.16;2153153;41;19940;-80
2021/05/21 00:43:10;;;;;;;;;;;;;;;12.65;58.82;99629.03;2164849;41;19948;-84
2021/05/21 01:17:39;;;;;;;;;;;;;;;12.98;56.98;99569.13;2139914;41;19934;-82
2021/05/21 01:22:05;;;;;;;;;;;;;;;13.02;56.71;99554.38;2119292;41;19952;-81
2021/05/21 01:23:38;;;;;;;;;;;;;;;13.07;56.42;99558.22;2149716;41;20050;-82
2021/05/21 01:25:17;;;;;;;;;;;;;;;13.10;56.37;99559.72;2170638;41;19951;-80
2021/05/21 01:26:50;;;;;;;;;;;;;;;13.12;56.12;99565.75;2171571;41;19956;-80
2021/05/21 01:28:22;;;;;;;;;;;;;;;13.11;56.23;99562.22;2192530;40;19931;-81
2021/05/21 01:29:53;;;;;;;;;;;;;;;13.11;56.02;99556.84;2209325;40;19984;-80
2021/05/21 01:31:25;;;;;;;;;;;;;;;13.13;55.97;99556.66;2210399;40;19934;-81
2021/05/21 01:32:56;;;;;;;;;;;;;;;13.14;55.96;99552.16;2208209;40;19933;-80
2021/05/21 01:34:27;;;;;;;;;;;;;;;13.15;55.77;99551.97;2210710;40;19936;-79
2021/05/21 01:35:59;;;;;;;;;;;;;;;13.15;55.88;99551.97;2208275;40;19938;-80
2021/05/21 01:37:33;;;;;;;;;;;;;;;13.18;55.71;99542.72;2211093;40;20464;-83
2021/05/21 01:56:25;;;;;;;;;;;;;;;13.01;55.72;99520.50;2145397;41;19989;-80
2021/05/21 01:57:56;;;;;;;;;;;;;;;13.00;55.68;99514.28;2156652;41;19955;-80
2021/05/21 01:59:27;;;;;;;;;;;;;;;13.02;55.75;99517.63;2169986;41;19947;-80
2021/05/21 02:00:58;;;;;;;;;;;;;;;13.03;55.73;99518.50;2162064;40;19954;-80
2021/05/21 02:02:29;;;;;;;;;;;;;;;13.02;55.67;99512.28;2162517;41;19959;-80
2021/05/21 02:04:00;;;;;;;;;;;;;;;13.05;55.77;99508.41;2169976;41;19947;-80
2021/05/21 02:05:31;;;;;;;;;;;;;;;13.08;55.50;99508.06;2179779;40;19943;-80
2021/05/21 02:07:03;;;;;;;;;;;;;;;13.11;55.44;99502.34;2194978;40;20353;-80
2021/05/21 02:08:34;;;;;;;;;;;;;;;13.13;55.48;99502.16;2212301;40;19946;-80
2021/05/21 02:10:06;;;;;;;;;;;;;;;13.13;55.46;99500.31;2214610;40;19940;-79
2021/05/21 02:11:39;;;;;;;;;;;;;;;13.11;55.47;99495.13;2212752;40;19962;-80
2021/05/21 02:13:10;;;;;;;;;;;;;;;13.10;55.43;99488.09;2214532;40;19952;-79
2021/05/21 02:14:40;;;;;;;;;;;;;;;13.08;55.39;99494.66;2213791;40;19941;-80
2021/05/21 02:16:11;;;;;;;;;;;;;;;13.06;55.45;99489.47;2215035;40;19957;-79
2021/05/21 02:17:42;;;;;;;;;;;;;;;13.07;55.44;99479.56;2214024;40;19938;-79
2021/05/21 02:19:14;;;;;;;;;;;;;;;13.09;55.40;99488.28;2209558;40;20035;-80
2021/05/21 02:20:45;;;;;;;;;;;;;;;13.07;55.52;99487.59;2210092;40;19941;-80
2021/05/21 02:22:18;;;;;;;;;;;;;;;12.98;55.53;99477.91;2214748;40;19948;-80
2021/05/21 02:23:50;;;;;;;;;;;;;;;12.95;55.62;99482.63;2208364;40;19952;-80
2021/05/21 02:25:21;;;;;;;;;;;;;;;12.95;55.63;99474.56;2211066;40;19997;-80
2021/05/21 02:26:52;;;;;;;;;;;;;;;12.92;55.61;99472.25;2206844;40;19938;-80
2021/05/21 02:28:23;;;;;;;;;;;;;;;12.91;55.62;99475.09;2212431;40;19965;-80
2021/05/21 02:29:54;;;;;;;;;;;;;;;12.92;55.60;99474.09;2212832;40;19949;-81
2021/05/21 02:31:25;;;;;;;;;;;;;;;12.89;55.77;99469.09;2217092;40;19992;-79
2021/05/21 02:32:56;;;;;;;;;;;;;;;12.89;55.72;99474.44;2213857;40;20506;-80
2021/05/21 02:34:27;;;;;;;;;;;;;;;12.86;55.97;99456.84;2214209;40;19938;-80
2021/05/21 02:35:58;;;;;;;;;;;;;;;12.85;55.84;99460.53;2214458;40;20015;-80
2021/05/21 02:37:28;;;;;;;;;;;;;;;12.81;55.81;99459.22;2212341;40;19950;-79
2021/05/21 02:39:01;;;;;;;;;;;;;;;12.81;56.02;99459.22;2213642;40;19972;-82
2021/05/21 02:40:32;;;;;;;;;;;;;;;12.82;55.82;99455.53;2216986;40;19929;-82
2021/05/21 02:42:07;;;;;;;;;;;;;;;12.84;55.93;99456.19;2215621;40;19925;-82
2021/05/21 02:43:38;;;;;;;;;;;;;;;12.81;56.04;99453.84;2217101;40;20016;-81
2021/05/21 02:45:10;;;;;;;;;;;;;;;12.78;56.14;99456.88;2211409;40;19926;-80
2021/05/21 02:46:42;;;;;;;;;;;;;;;12.76;56.30;99459.72;2216621;40;19955;-80
2021/05/21 02:50:04;;;;;;;;;;;;;;;12.76;56.31;99449.00;2209892;40;19945;-80
2021/05/21 02:51:35;;;;;;;;;;;;;;;12.78;56.27;99455.03;2215596;40;19940;-81
2021/05/21 02:53:08;;;;;;;;;;;;;;;12.78;56.30;99435.41;2216721;40;19992;-80
2021/05/21 02:54:40;;;;;;;;;;;;;;;12.80;56.20;99441.44;2215820;40;19942;-80
2021/05/21 02:56:12;;;;;;;;;;;;;;;12.83;56.13;99437.56;2217039;40;19937;-81
2021/05/21 02:57:44;;;;;;;;;;;;;;;12.82;56.13;99435.91;2208693;40;19944;-81
2021/05/21 02:59:15;;;;;;;;;;;;;;;12.80;56.15;99434.22;2214708;40;19946;-81
2021/05/21 03:03:01;;;;;;;;;;;;;;;12.84;56.05;99420.47;2199585;40;19937;-83
2021/05/21 03:07:00;;;;;;;;;;;;;;;12.87;55.93;99423.63;2203136;40;19938;-79
2021/05/21 03:08:32;;;;;;;;;;;;;;;12.86;55.95;99416.59;2211088;40;19934;-80
2021/05/21 03:10:04;;;;;;;;;;;;;;;12.88;55.91;99414.59;2214400;40;20030;-80
2021/05/21 03:11:37;;;;;;;;;;;;;;;12.87;56.08;99409.41;2212382;40;19934;-80
2021/05/21 03:13:11;;;;;;;;;;;;;;;12.85;56.10;99414.91;2214955;40;20481;-80
2021/05/21 03:14:43;;;;;;;;;;;;;;;12.86;55.86;99413.91;2213292;40;19942;-80
2021/05/21 03:16:15;;;;;;;;;;;;;;;12.88;55.94;99405.72;2216426;40;19946;-78
2021/05/21 03:17:47;;;;;;;;;;;;;;;12.88;55.91;99409.22;2215268;40;19948;-79
2021/05/21 03:19:17;;;;;;;;;;;;;;;12.91;55.72;99405.34;2210226;40;19941;-79
2021/05/21 03:20:50;;;;;;;;;;;;;;;12.94;55.70;99408.50;2209131;40;19934;-79
2021/05/21 03:22:22;;;;;;;;;;;;;;;12.93;55.61;99401.50;2215082;40;20049;-81
2021/05/21 03:23:54;;;;;;;;;;;;;;;12.95;55.53;99404.81;2214677;40;19936;-80
2021/05/21 03:25:25;;;;;;;;;;;;;;;12.97;55.64;99401.97;2214917;40;19948;-80
2021/05/21 03:26:56;;;;;;;;;;;;;;;13.01;55.49;99395.22;2213107;40;19970;-80
2021/05/21 03:28:29;;;;;;;;;;;;;;;13.01;55.41;99389.84;2213472;40;19946;-80
2021/05/21 03:30:04;;;;;;;;;;;;;;;13.01;55.46;99392.53;2214357;40;19929;-80
2021/05/21 03:31:35;;;;;;;;;;;;;;;13.02;55.28;99386.16;2216562;40;19986;-81
2021/05/21 03:33:06;;;;;;;;;;;;;;;13.04;55.43;99397.56;2214645;40;19932;-80
2021/05/21 03:48:55;;;;;;;;;;;;;;;13.05;55.32;99383.13;2194687;40;19993;-78
2021/05/21 03:50:26;;;;;;;;;;;;;;;13.04;55.39;99377.94;2197566;40;19960;-78
2021/05/21 03:51:57;;;;;;;;;;;;;;;13.02;55.39;99388.84;2197326;40;20025;-78
2021/05/21 03:53:28;;;;;;;;;;;;;;;13.03;55.37;99381.66;2197440;40;19950;-78
2021/05/21 03:54:59;;;;;;;;;;;;;;;13.03;55.38;99374.44;2198056;40;20369;-78
2021/05/21 03:56:30;;;;;;;;;;;;;;;13.02;55.40;99378.13;2195257;40;20017;-78
2021/05/21 03:58:01;;;;;;;;;;;;;;;13.04;55.39;99385.97;2195411;40;19938;-78
2021/05/21 03:59:32;;;;;;;;;;;;;;;13.04;55.48;99375.25;2194393;40;19942;-78
2021/05/21 04:01:04;;;;;;;;;;;;;;;13.05;55.49;99372.41;2198673;40;19954;-78
2021/05/21 04:02:35;;;;;;;;;;;;;;;13.08;55.47;99374.72;2197395;40;19942;-78
2021/05/21 04:04:07;;;;;;;;;;;;;;;13.12;55.31;99372.53;2199497;40;19943;-79
2021/05/21 04:05:38;;;;;;;;;;;;;;;13.14;55.41;99365.13;2184554;40;20035;-77
2021/05/21 04:07:09;;;;;;;;;;;;;;;13.15;55.29;99374.03;2197445;40;19938;-76
2021/05/21 04:08:41;;;;;;;;;;;;;;;13.13;55.34;99368.81;2200214;40;19942;-78
2021/05/21 04:10:12;;;;;;;;;;;;;;;13.10;55.40;99369.19;2199547;40;19934;-78
2021/05/21 04:11:43;;;;;;;;;;;;;;;13.16;55.35;99370.34;2192860;40;19949;-78
2021/05/21 04:13:14;;;;;;;;;;;;;;;13.17;55.23;99372.81;2194243;40;19938;-77
2021/05/21 04:14:45;;;;;;;;;;;;;;;13.16;55.22;99363.09;2181207;40;19946;-78
2021/05/21 04:16:16;;;;;;;;;;;;;;;13.18;55.41;99361.09;2186770;40;19939;-78
2021/05/21 04:17:47;;;;;;;;;;;;;;;13.19;55.32;99361.91;2184745;40;20708;-78
2021/05/21 04:19:19;;;;;;;;;;;;;;;13.21;55.40;99358.06;2187336;40;19945;-78
2021/05/21 04:20:50;;;;;;;;;;;;;;;13.26;55.21;99352.97;2195521;40;19945;-78
2021/05/21 04:22:21;;;;;;;;;;;;;;;13.31;55.02;99348.94;2194725;40;20421;-78
2021/05/21 04:23:53;;;;;;;;;;;;;;;13.32;55.00;99353.28;2198341;40;19942;-78
2021/05/21 04:25:24;;;;;;;;;;;;;;;13.35;55.00;99356.44;2200251;40;19958;-78
2021/05/21 04:26:55;;;;;;;;;;;;;;;13.38;54.84;99349.88;2195822;40;19942;-78
2021/05/21 04:28:26;;;;;;;;;;;;;;;13.38;54.81;99345.31;2194117;40;19962;-78
2021/05/21 04:29:57;;;;;;;;;;;;;;;13.41;54.88;99338.81;2195016;40;19949;-78
2021/05/21 04:31:28;;;;;;;;;;;;;;;13.46;54.69;99344.47;2198829;40;20322;-78
2021/05/21 04:32:59;;;;;;;;;;;;;;;13.43;54.66;99346.69;2197569;40;19945;-80
2021/05/21 04:34:31;;;;;;;;;;;;;;;13.43;54.67;99350.19;2197318;40;20246;-78
2021/05/21 04:36:02;;;;;;;;;;;;;;;13.47;54.51;99343.44;2197332;40;19938;-78
2021/05/21 04:37:33;;;;;;;;;;;;;;;13.48;54.44;99345.13;2196319;40;20306;-78
2021/05/21 04:39:04;;;;;;;;;;;;;;;13.48;54.63;99344.28;2198171;40;19956;-78
2021/05/21 04:40:35;;;;;;;;;;;;;;;13.54;54.43;99335.50;2197419;40;20340;-81
2021/05/21 04:42:06;;;;;;;;;;;;;;;13.60;54.12;99347.38;2192130;40;19938;-77
2021/05/21 04:43:37;;;;;;;;;;;;;;;13.61;54.10;99346.34;2195829;40;19934;-79
2021/05/21 04:45:09;;;;;;;;;;;;;;;13.59;53.87;99337.66;2197893;40;19946;-78
2021/05/21 04:46:41;;;;;;;;;;;;;;;13.64;53.91;99327.19;2197646;40;19942;-78
2021/05/21 04:48:12;;;;;;;;;;;;;;;13.71;53.62;99328.13;2198076;40;19993;-78
2021/05/21 04:49:44;;;;;;;;;;;;;;;13.68;53.46;99326.63;2202589;40;19938;-78
2021/05/21 04:51:15;;;;;;;;;;;;;;;13.69;53.56;99341.75;2204376;40;20309;-78
2021/05/21 04:52:47;;;;;;;;;;;;;;;13.73;53.21;99337.69;2205980;40;19963;-78
2021/05/21 04:54:19;;;;;;;;;;;;;;;13.77;53.23;99330.09;2203443;40;20322;-78
2021/05/21 04:55:50;;;;;;;;;;;;;;;13.77;53.09;99332.78;2204906;40;19952;-78
2021/05/21 04:57:21;;;;;;;;;;;;;;;13.81;53.09;99328.69;2198694;40;20356;-78
2021/05/21 04:58:52;;;;;;;;;;;;;;;13.87;52.89;99327.97;2202012;40;19938;-78
2021/05/21 05:00:23;;;;;;;;;;;;;;;13.91;52.68;99319.53;2200420;40;19938;-78
2021/05/21 05:01:54;;;;;;;;;;;;;;;13.88;52.67;99318.03;2200038;40;19947;-78
2021/05/21 05:03:26;;;;;;;;;;;;;;;13.91;52.59;99322.22;2202227;40;19993;-78
2021/05/21 05:04:57;;;;;;;;;;;;;;;13.92;52.50;99319.38;2206311;40;19942;-79
2021/05/21 05:06:29;;;;;;;;;;;;;;;13.96;52.45;99325.19;2203061;40;20501;-78
2021/05/21 05:08:00;;;;;;;;;;;;;;;14.00;52.34;99313.03;2206276;40;19949;-80
2021/05/21 05:09:31;;;;;;;;;;;;;;;14.04;52.16;99306.28;2201984;40;19949;-80
2021/05/21 05:11:02;;;;;;;;;;;;;;;14.04;51.95;99307.13;2205377;40;19942;-80
2021/05/21 05:12:33;;;;;;;;;;;;;;;14.04;52.15;99298.22;2201700;40;19942;-78
2021/05/21 05:14:04;;;;;;;;;;;;;;;14.08;51.83;99304.06;2200489;40;19950;-78
2021/05/21 05:15:36;;;;;;;;;;;;;;;14.07;51.74;99297.03;2200985;40;19941;-77
2021/05/21 05:17:07;;;;;;;;;;;;;;;14.03;51.84;99293.88;2205767;40;19942;-78
2021/05/21 05:18:38;;;;;;;;;;;;;;;14.02;51.88;99293.06;2203649;40;19937;-77
2021/05/21 05:20:11;;;;;;;;;;;;;;;14.05;51.76;99286.47;2199659;40;19938;-78
2021/05/21 05:21:43;;;;;;;;;;;;;;;14.10;51.68;99288.59;2200809;40;19946;-78
2021/05/21 05:23:13;;;;;;;;;;;;;;;14.06;51.85;99285.44;2203021;40;20380;-78
2021/05/21 05:24:44;;;;;;;;;;;;;;;14.07;51.89;99284.44;2204478;40;19996;-78
2021/05/21 05:26:16;;;;;;;;;;;;;;;14.11;51.84;99285.72;2204069;40;19942;-79
2021/05/21 05:27:47;;;;;;;;;;;;;;;14.15;51.68;99280.78;2204336;40;19953;-79
2021/05/21 05:29:18;;;;;;;;;;;;;;;14.17;51.46;99278.75;2204782;40;19937;-78
2021/05/21 05:30:49;;;;;;;;;;;;;;;14.15;51.56;99270.88;2206397;40;19941;-78
2021/05/21 05:32:21;;;;;;;;;;;;;;;14.18;51.49;99270.50;2201261;40;19938;-78
2021/05/21 05:33:52;;;;;;;;;;;;;;;14.23;51.48;99271.81;2205826;40;19953;-78
2021/05/21 05:35:23;;;;;;;;;;;;;;;14.28;51.43;99280.13;2187507;40;19945;-78
2021/05/21 05:36:55;;;;;;;;;;;;;;;14.23;51.27;99272.63;2203728;40;19950;-78
2021/05/21 05:38:26;;;;;;;;;;;;;;;14.22;51.43;99267.44;2201311;40;19982;-81
2021/05/21 05:39:57;;;;;;;;;;;;;;;14.23;51.50;99271.81;2204474;40;19934;-79
2021/05/21 05:41:28;;;;;;;;;;;;;;;14.27;51.47;99267.69;2204668;40;20738;-81
2021/05/21 05:42:59;;;;;;;;;;;;;;;14.29;51.32;99271.88;2206093;40;20251;-79
2021/05/21 05:44:31;;;;;;;;;;;;;;;14.29;51.14;99271.03;2202776;40;20551;-78
2021/05/21 05:46:04;;;;;;;;;;;;;;;14.30;51.28;99270.03;2200334;40;19946;-82
2021/05/21 05:47:34;;;;;;;;;;;;;;;14.35;51.08;99264.94;2198606;40;19944;-79
2021/05/21 05:49:05;;;;;;;;;;;;;;;14.41;50.85;99258.78;2200075;40;19953;-80
2021/05/21 05:50:37;;;;;;;;;;;;;;;14.45;50.76;99254.69;2198897;40;19990;-80
2021/05/21 05:52:09;;;;;;;;;;;;;;;14.46;50.88;99250.97;2200134;40;20354;-79
2021/05/21 05:53:41;;;;;;;;;;;;;;;14.48;50.88;99256.19;2197048;40;19946;-79
2021/05/21 05:55:12;;;;;;;;;;;;;;;14.53;50.95;99252.94;2206111;40;20032;-79
2021/05/21 05:56:43;;;;;;;;;;;;;;;14.53;50.43;99264.50;2190128;40;19950;-79
2021/05/21 05:58:14;;;;;;;;;;;;;;;14.56;50.72;99250.69;2204901;40;19942;-81
2021/05/21 05:59:44;;;;;;;;;;;;;;;14.62;50.35;99251.78;2204504;40;19945;-79
2021/05/21 06:01:16;;;;;;;;;;;;;;;14.62;50.28;99255.28;2203550;40;19953;-79
2021/05/21 06:02:46;;;;;;;;;;;;;;;14.59;50.27;99252.16;2198925;40;20341;-78
2021/05/21 06:04:17;;;;;;;;;;;;;;;14.60;50.50;99243.88;2203817;40;19952;-80
2021/05/21 06:05:49;;;;;;;;;;;;;;;14.62;50.03;99241.03;2204770;40;19942;-79
2021/05/21 06:07:20;;;;;;;;;;;;;;;14.65;50.29;99248.69;2205193;40;19949;-80
2021/05/21 06:08:51;;;;;;;;;;;;;;;14.73;49.97;99243.25;2199003;40;20223;-79
2021/05/21 06:10:22;;;;;;;;;;;;;;;14.79;50.00;99247.84;2200423;40;19962;-80
2021/05/21 06:11:54;;;;;;;;;;;;;;;14.81;49.84;99240.44;2205417;40;19941;-78
2021/05/21 06:13:26;;;;;;;;;;;;;;;14.86;49.63;99241.69;2203720;40;19946;-79
2021/05/21 06:14:57;;;;;;;;;;;;;;;14.90;49.59;99240.28;2201998;40;19938;-80
2021/05/21 06:16:28;;;;;;;;;;;;;;;14.95;49.46;99230.63;2200782;40;20037;-79
2021/05/21 06:17:59;;;;;;;;;;;;;;;15.05;49.73;99230.28;2204410;40;19957;-80
2021/05/21 06:19:30;;;;;;;;;;;;;;;15.12;49.36;99224.97;2202290;40;19950;-79
2021/05/21 06:21:03;;;;;;;;;;;;;;;15.16;49.00;99218.13;2201236;40;19939;-79
2021/05/21 06:22:34;;;;;;;;;;;;;;;15.20;48.76;99213.22;2199877;40;20336;-80
2021/05/21 06:24:06;;;;;;;;;;;;;;;15.24;48.53;99218.03;2203124;40;19942;-79
2021/05/21 06:25:54;;;;;;;;;;;;;;;15.27;48.63;99219.47;2206490;40;19998;-79
2021/05/21 06:27:26;;;;;;;;;;;;;;;15.32;48.60;99225.09;2198895;40;20358;-79
2021/05/21 06:28:57;;;;;;;;;;;;;;;15.35;47.90;99222.03;2199678;40;20248;-79
2021/05/21 06:30:29;;;;;;;;;;;;;;;15.39;47.93;99219.78;2201254;40;19938;-78
2021/05/21 06:32:00;;;;;;;;;;;;;;;15.45;47.68;99210.91;2205673;40;19938;-79
2021/05/21 06:33:32;;;;;;;;;;;;;;;15.42;47.62;99220.22;2204168;40;19945;-78
2021/05/21 06:35:03;;;;;;;;;;;;;;;15.47;47.40;99214.22;2199996;40;19942;-79
2021/05/21 06:36:35;;;;;;;;;;;;;;;15.54;47.19;99214.28;2202816;40;20265;-77
2021/05/21 06:38:07;;;;;;;;;;;;;;;15.57;46.98;99205.81;2206258;40;20305;-79
2021/05/21 06:39:38;;;;;;;;;;;;;;;15.59;46.81;99206.41;2201338;40;19938;-79
2021/05/21 06:41:09;;;;;;;;;;;;;;;15.59;46.84;99206.41;2203401;40;20048;-78
2021/05/21 06:42:40;;;;;;;;;;;;;;;15.61;46.99;99201.66;2206419;40;19942;-79
2021/05/21 06:44:11;;;;;;;;;;;;;;;15.67;46.65;99198.22;2200866;40;19938;-78
2021/05/21 06:45:43;;;;;;;;;;;;;;;15.73;46.83;99199.25;2200972;40;19948;-78
2021/05/21 06:47:14;;;;;;;;;;;;;;;15.77;46.76;99186.22;2205290;40;19949;-78
2021/05/21 06:48:45;;;;;;;;;;;;;;;15.79;46.66;99194.94;2205097;40;20456;-78
2021/05/21 06:50:16;;;;;;;;;;;;;;;15.78;46.45;99187.88;2202837;40;19942;-78
2021/05/21 06:51:47;;;;;;;;;;;;;;;15.78;46.77;99185.19;2199638;40;19949;-78
2021/05/21 06:53:19;;;;;;;;;;;;;;;15.78;46.37;99179.78;2205188;40;20029;-79
2021/05/21 06:54:51;;;;;;;;;;;;;;;15.82;46.69;99187.28;2201158;40;19942;-78
2021/05/21 06:56:24;;;;;;;;;;;;;;;15.85;46.25;99186.91;2201763;40;19938;-78
2021/05/21 06:57:55;;;;;;;;;;;;;;;15.88;46.28;99182.97;2206375;40;19934;-77
2021/05/21 06:59:25;;;;;;;;;;;;;;;15.86;46.42;99179.69;2203256;40;20295;-78
2021/05/21 07:00:57;;;;;;;;;;;;;;;15.82;46.15;99181.06;2206890;40;19949;-78
2021/05/21 07:02:29;;;;;;;;;;;;;;;15.83;46.19;99185.44;2204251;40;19934;-80
2021/05/21 07:04:03;;;;;;;;;;;;;;;15.87;46.31;99197.50;2206687;40;19945;-78
2021/05/21 07:05:34;;;;;;;;;;;;;;;15.90;45.93;99189.84;2204592;40;19942;-79
2021/05/21 07:07:06;;;;;;;;;;;;;;;15.96;46.18;99184.69;2202525;40;20301;-79
2021/05/21 07:08:37;;;;;;;;;;;;;;;15.98;46.19;99186.13;2201292;40;26197;-79
2021/05/21 07:10:08;;;;;;;;;;;;;;;16.03;46.07;99175.59;2203859;40;19937;-78
2021/05/21 07:11:39;;;;;;;;;;;;;;;16.01;45.72;99169.56;2201032;40;19942;-79
2021/05/21 07:13:10;;;;;;;;;;;;;;;16.03;46.20;99164.81;2204656;40;20032;-79
2021/05/21 07:14:41;;;;;;;;;;;;;;;16.06;46.14;99166.25;2205668;40;19942;-79
2021/05/21 07:16:12;;;;;;;;;;;;;;;16.08;46.09;99177.69;2205330;40;19942;-80
2021/05/21 07:17:43;;;;;;;;;;;;;;;16.04;46.09;99169.19;2206246;40;19941;-79
2021/05/21 07:19:17;;;;;;;;;;;;;;;16.10;46.03;99170.22;2206922;40;19942;-78
2021/05/21 07:20:48;;;;;;;;;;;;;;;16.13;45.86;99167.13;2202091;40;20180;-79
2021/05/21 07:22:19;;;;;;;;;;;;;;;16.15;46.01;99166.94;2207125;40;19942;-78
2021/05/21 07:23:51;;;;;;;;;;;;;;;16.23;45.96;99164.03;2208997;40;19990;-78
2021/05/21 07:25:23;;;;;;;;;;;;;;;16.29;45.65;99165.91;2209714;40;19948;-78
2021/05/21 07:26:54;;;;;;;;;;;;;;;16.31;45.35;99174.66;2206851;40;20328;-79
2021/05/21 07:28:25;;;;;;;;;;;;;;;16.32;45.39;99168.22;2206526;40;19964;-79
2021/05/21 07:29:56;;;;;;;;;;;;;;;16.35;45.30;99175.06;2205520;40;19946;-78
2021/05/21 07:31:27;;;;;;;;;;;;;;;16.32;45.22;99178.16;2207224;40;19945;-78
2021/05/21 07:32:58;;;;;;;;;;;;;;;16.29;45.59;99173.19;2200773;40;20001;-78
2021/05/21 07:34:29;;;;;;;;;;;;;;;16.31;45.29;99176.50;2204905;40;19950;-78
2021/05/21 07:36:01;;;;;;;;;;;;;;;16.30;45.62;99174.81;2205305;40;20323;-79
2021/05/21 07:37:34;;;;;;;;;;;;;;;16.34;45.19;99173.41;2208146;40;19977;-80
2021/05/21 07:39:07;;;;;;;;;;;;;;;16.34;45.50;99176.91;2205941;40;20372;-79
2021/05/21 07:40:39;;;;;;;;;;;;;;;16.36;45.52;99180.25;2206580;40;19934;-80
2021/05/21 07:42:10;;;;;;;;;;;;;;;16.36;45.49;99180.25;2202993;40;19940;-81
2021/05/21 07:43:41;;;;;;;;;;;;;;;16.35;45.60;99180.47;2208085;40;19942;-80
2021/05/21 07:45:12;;;;;;;;;;;;;;;16.34;45.71;99181.50;2206905;40;19953;-81
2021/05/21 07:46:44;;;;;;;;;;;;;;;16.31;45.60;99187.28;2208083;40;20009;-80
2021/05/21 07:48:15;;;;;;;;;;;;;;;16.29;45.65;99182.09;2206629;40;20295;-80
2021/05/21 07:49:46;;;;;;;;;;;;;;;16.34;45.62;99184.19;2208364;40;19957;-79
2021/05/21 07:51:17;;;;;;;;;;;;;;;16.38;45.72;99183.56;2205024;40;19950;-79
2021/05/21 07:52:49;;;;;;;;;;;;;;;16.36;45.63;99174.03;2208638;40;19942;-79
2021/05/21 07:54:20;;;;;;;;;;;;;;;16.33;45.89;99180.66;2202236;40;19942;-80
2021/05/21 07:55:52;;;;;;;;;;;;;;;16.29;45.93;99179.41;2202064;40;20046;-80
2021/05/21 07:57:24;;;;;;;;;;;;;;;16.28;45.79;99176.91;2203051;40;19949;-81
2021/05/21 07:58:55;;;;;;;;;;;;;;;16.30;45.93;99177.53;2208300;40;19937;-79
2021/05/21 08:00:26;;;;;;;;;;;;;;;16.30;45.73;99180.22;2206121;40;19952;-79
2021/05/21 08:01:57;;;;;;;;;;;;;;;16.31;45.70;99179.19;2203246;40;19945;-79
2021/05/21 08:03:28;;;;;;;;;;;;;;;16.32;45.98;99179.00;2200781;40;19942;-79
2021/05/21 08:04:59;;;;;;;;;;;;;;;16.34;46.13;99178.78;2207515;40;19945;-79
2021/05/21 08:06:30;;;;;;;;;;;;;;;16.35;45.84;99181.28;2205510;40;19938;-80
2021/05/21 08:08:02;;;;;;;;;;;;;;;16.33;46.02;99172.59;2204054;40;20292;-82
2021/05/21 08:09:36;;;;;;;;;;;;;;;16.34;46.09;99173.41;2200886;40;19942;-79
2021/05/21 08:11:09;;;;;;;;;;;;;;;16.34;46.35;99171.53;2207926;40;19937;-79
2021/05/21 08:12:42;;;;;;;;;;;;;;;16.35;46.25;99164.28;2207602;40;19945;-80
2021/05/21 08:14:13;;;;;;;;;;;;;;;16.38;46.24;99167.38;2208785;40;19942;-79
2021/05/21 08:15:45;;;;;;;;;;;;;;;16.37;46.34;99160.34;2207264;40;19952;-80
2021/05/21 08:17:16;;;;;;;;;;;;;;;16.36;46.40;99157.84;2207577;40;19942;-82
2021/05/21 08:18:47;;;;;;;;;;;;;;;16.34;46.38;99168.81;2207598;40;19938;-78
2021/05/21 08:20:18;;;;;;;;;;;;;;;16.31;46.47;99166.56;2206521;40;19938;-79
2021/05/21 08:21:50;;;;;;;;;;;;;;;16.33;46.36;99164.50;2207817;40;19937;-79
2021/05/21 08:23:22;;;;;;;;;;;;;;;16.40;46.49;99158.28;2203734;40;19946;-80
2021/05/21 08:24:54;;;;;;;;;;;;;;;16.43;46.06;99152.47;2202191;40;19933;-80
2021/05/21 08:26:26;;;;;;;;;;;;;;;16.44;46.23;99154.09;2204375;40;20350;-78
2021/05/21 08:27:57;;;;;;;;;;;;;;;16.47;46.24;99159.09;2202623;40;19938;-80
2021/05/21 08:29:28;;;;;;;;;;;;;;;16.47;46.31;99149.16;2180029;40;19949;-80
2021/05/21 08:30:58;;;;;;;;;;;;;;;16.52;46.09;99145.84;2193965;40;19953;-79
2021/05/21 08:32:29;;;;;;;;;;;;;;;16.52;46.16;99145.84;2200629;40;19938;-83
2021/05/21 08:34:01;;;;;;;;;;;;;;;16.53;46.31;99147.50;2202449;40;19941;-83
2021/05/21 08:35:32;;;;;;;;;;;;;;;16.56;46.25;99152.47;2200798;40;19949;-80
2021/05/21 08:37:03;;;;;;;;;;;;;;;16.59;46.24;99154.78;2202063;40;19949;-81
2021/05/21 08:38:35;;;;;;;;;;;;;;;16.60;46.27;99148.34;2200848;40;19949;-81
2021/05/21 08:40:08;;;;;;;;;;;;;;;16.62;46.28;99157.06;2202123;40;19930;-81
2021/05/21 08:41:42;;;;;;;;;;;;;;;16.62;46.25;99148.97;2200578;40;19946;-80
2021/05/21 08:43:13;;;;;;;;;;;;;;;16.63;46.07;99157.88;2204320;40;20029;-79
2021/05/21 08:44:49;;;;;;;;;;;;;;;16.68;46.34;99156.25;2200613;40;19938;-80
2021/05/21 08:46:20;;;;;;;;;;;;;;;16.72;46.00;99156.66;2203476;40;19938;-81
2021/05/21 08:47:51;;;;;;;;;;;;;;;16.65;45.23;99143.16;2205489;40;19938;-79
2021/05/21 08:49:23;;;;;;;;;;;;;;;16.60;45.35;99151.03;2207921;40;19953;-80
2021/05/21 08:50:54;;;;;;;;;;;;;;;16.58;45.40;99147.72;2206198;40;19952;-81
2021/05/21 08:52:25;;;;;;;;;;;;;;;16.57;45.13;99143.34;2206126;40;19998;-81
2021/05/21 08:53:57;;;;;;;;;;;;;;;16.58;45.27;99152.28;2200311;40;20265;-81
2021/05/21 08:55:28;;;;;;;;;;;;;;;16.58;45.24;99147.72;2203092;40;19949;-80
2021/05/21 08:56:59;;;;;;;;;;;;;;;16.58;44.67;99141.50;2203999;40;19946;-80
2021/05/21 08:58:30;;;;;;;;;;;;;;;16.56;44.84;99146.25;2206977;40;19938;-81
2021/05/21 09:00:01;;;;;;;;;;;;;;;16.57;44.83;99143.34;2204191;40;19942;-80
2021/05/21 09:01:32;;;;;;;;;;;;;;;16.53;44.73;99147.50;2206526;40;19968;-81
2021/05/21 09:03:16;;;;;;;;;;;;;;;16.53;45.28;99144.81;2204062;40;19949;-81
2021/05/21 09:04:48;;;;;;;;;;;;;;;16.59;45.20;99143.97;2206096;40;19938;-80
2021/05/21 09:06:20;;;;;;;;;;;;;;;16.66;45.27;99146.69;2201444;40;20350;-80
2021/05/21 09:07:51;;;;;;;;;;;;;;;16.68;44.86;99142.75;2200703;40;19945;-81
2021/05/21 09:09:24;;;;;;;;;;;;;;;16.72;45.17;99145.03;2201442;40;19949;-81
2021/05/21 09:10:55;;;;;;;;;;;;;;;16.72;45.31;99145.03;2205143;40;19965;-81
2021/05/21 09:12:36;;;;;;;;;;;;;;;16.72;45.30;99155.84;2203072;40;19990;-80
2021/05/21 09:14:07;;;;;;;;;;;;;;;16.74;45.20;99156.44;2199540;40;20483;-80
2021/05/21 09:15:38;;;;;;;;;;;;;;;16.75;45.27;99153.53;2154881;40;19996;-81
2021/05/21 09:17:22;;;;;;;;;;;;;;;16.80;45.36;99150.22;2178869;40;20012;-80
2021/05/21 09:19:04;;;;;;;;;;;;;;;16.82;45.40;99157.06;2203697;40;19942;-80
2021/05/21 09:20:36;;;;;;;;;;;;;;;16.80;45.51;99161.03;2204543;40;19945;-80
2021/05/21 09:22:07;;;;;;;;;;;;;;;16.84;45.34;99162.25;2204258;40;20283;-80
2021/05/21 09:23:38;;;;;;;;;;;;;;;16.85;45.24;99161.22;2205161;40;19996;-81
2021/05/21 09:25:10;;;;;;;;;;;;;;;16.77;45.21;99164.13;2204690;40;19942;-77
2021/05/21 09:26:42;;;;;;;;;;;;;;;16.75;45.30;99166.19;2204786;40;19962;-78
2021/05/21 09:28:32;;;;;;;;;;;;;;;16.72;45.32;99162.03;2205347;40;20555;-81
2021/05/21 09:30:04;;;;;;;;;;;;;;;16.76;45.63;99162.47;2206940;40;19941;-81
2021/05/21 09:31:42;;;;;;;;;;;;;;;16.74;45.62;99164.53;2207210;40;19938;-81